sensor_id;sensor_type;location;lat;lon;timestamp;P1;durP1;ratioP1;P2;durP2;ratioP2
21959;SDS011;11144;43.030;25.108;2023-06-19T00:00:57;24.65;;;11.80;;
21959;SDS011;11144;43.030;25.108;2023-06-19T00:02:30;24.15;;;12.23;;
21959;SDS011;11144;43.030;25.108;2023-06-19T00:04:03;19.83;;;11.55;;
21959;SDS011;11144;43.030;25.108;2023-06-19T00:05:38;21.83;;;11.00;;
21959;SDS011;11144;43.030;25.108;2023-06-19T00:07:11;23.77;;;11.95;;
21959;SDS011;11144;43.030;25.108;2023-06-19T00:08:43;20.38;;;10.95;;
21959;SDS011;11144;43.030;25.108;2023-06-19T00:10:17;25.15;;;11.57;;
21959;SDS011;11144;43.030;25.108;2023-06-19T00:11:50;33.28;;;13.25;;
21959;SDS011;11144;43.030;25.108;2023-06-19T00:13:23;24.25;;;11.43;;
21959;SDS011;11144;43.030;25.108;2023-06-19T00:14:57;24.20;;;11.02;;
21959;SDS011;11144;43.030;25.108;2023-06-19T00:16:30;18.83;;;11.30;;
21959;SDS011;11144;43.030;25.108;2023-06-19T00:18:04;19.38;;;10.68;;
21959;SDS011;11144;43.030;25.108;2023-06-19T00:19:38;27.23;;;11.90;;
21959;SDS011;11144;43.030;25.108;2023-06-19T00:21:12;19.95;;;10.75;;
21959;SDS011;11144;43.030;25.108;2023-06-19T00:22:45;27.52;;;12.20;;
21959;SDS011;11144;43.030;25.108;2023-06-19T00:24:23;25.40;;;11.65;;
21959;SDS011;11144;43.030;25.108;2023-06-19T00:25:55;20.35;;;10.63;;
21959;SDS011;11144;43.030;25.108;2023-06-19T00:27:28;22.33;;;10.75;;
21959;SDS011;11144;43.030;25.108;2023-06-19T00:29:01;24.95;;;12.55;;
21959;SDS011;11144;43.030;25.108;2023-06-19T00:30:35;27.65;;;11.88;;
21959;SDS011;11144;43.030;25.108;2023-06-19T00:32:08;21.17;;;10.45;;
21959;SDS011;11144;43.030;25.108;2023-06-19T00:33:41;18.02;;;10.98;;
21959;SDS011;11144;43.030;25.108;2023-06-19T00:35:15;23.15;;;11.75;;
21959;SDS011;11144;43.030;25.108;2023-06-19T00:36:52;20.83;;;11.77;;
21959;SDS011;11144;43.030;25.108;2023-06-19T00:38:27;22.98;;;11.05;;
21959;SDS011;11144;43.030;25.108;2023-06-19T00:40:01;27.02;;;10.55;;
21959;SDS011;11144;43.030;25.108;2023-06-19T00:41:34;28.60;;;12.05;;
21959;SDS011;11144;43.030;25.108;2023-06-19T00:43:08;23.08;;;11.02;;
21959;SDS011;11144;43.030;25.108;2023-06-19T00:44:40;21.30;;;11.23;;
21959;SDS011;11144;43.030;25.108;2023-06-19T00:46:15;24.20;;;10.98;;
21959;SDS011;11144;43.030;25.108;2023-06-19T00:47:47;19.65;;;12.45;;
21959;SDS011;11144;43.030;25.108;2023-06-19T00:49:21;15.45;;;10.77;;
21959;SDS011;11144;43.030;25.108;2023-06-19T00:50:53;14.50;;;10.75;;
21959;SDS011;11144;43.030;25.108;2023-06-19T00:52:28;19.50;;;11.85;;
21959;SDS011;11144;43.030;25.108;2023-06-19T00:54:01;20.67;;;11.48;;
21959;SDS011;11144;43.030;25.108;2023-06-19T00:55:35;22.50;;;10.73;;
21959;SDS011;11144;43.030;25.108;2023-06-19T00:57:12;21.77;;;11.35;;
21959;SDS011;11144;43.030;25.108;2023-06-19T00:58:46;25.77;;;12.55;;
21959;SDS011;11144;43.030;25.108;2023-06-19T01:00:19;31.08;;;12.35;;
21959;SDS011;11144;43.030;25.108;2023-06-19T01:01:52;20.30;;;11.05;;
21959;SDS011;11144;43.030;25.108;2023-06-19T01:03:25;28.63;;;11.48;;
21959;SDS011;11144;43.030;25.108;2023-06-19T01:04:59;28.48;;;11.93;;
21959;SDS011;11144;43.030;25.108;2023-06-19T01:06:34;25.63;;;12.20;;
21959;SDS011;11144;43.030;25.108;2023-06-19T01:08:21;21.40;;;13.13;;
21959;SDS011;11144;43.030;25.108;2023-06-19T01:10:07;51.13;;;31.95;;
21959;SDS011;11144;43.030;25.108;2023-06-19T01:11:43;82.32;;;59.90;;
21959;SDS011;11144;43.030;25.108;2023-06-19T01:13:21;27.88;;;17.15;;
21959;SDS011;11144;43.030;25.108;2023-06-19T01:15:04;18.70;;;13.10;;
21959;SDS011;11144;43.030;25.108;2023-06-19T01:16:40;22.75;;;12.90;;
21959;SDS011;11144;43.030;25.108;2023-06-19T01:18:13;21.55;;;12.27;;
21959;SDS011;11144;43.030;25.108;2023-06-19T01:19:48;35.05;;;13.52;;
21959;SDS011;11144;43.030;25.108;2023-06-19T01:21:22;22.30;;;11.30;;
21959;SDS011;11144;43.030;25.108;2023-06-19T01:22:55;19.83;;;11.70;;
21959;SDS011;11144;43.030;25.108;2023-06-19T01:24:29;20.67;;;11.20;;
21959;SDS011;11144;43.030;25.108;2023-06-19T01:26:01;22.13;;;11.43;;
21959;SDS011;11144;43.030;25.108;2023-06-19T01:27:35;23.63;;;10.93;;
21959;SDS011;11144;43.030;25.108;2023-06-19T01:29:10;47.38;;;25.13;;
21959;SDS011;11144;43.030;25.108;2023-06-19T01:30:43;26.15;;;13.13;;
21959;SDS011;11144;43.030;25.108;2023-06-19T01:32:18;23.38;;;10.98;;
21959;SDS011;11144;43.030;25.108;2023-06-19T01:33:56;22.83;;;12.00;;
21959;SDS011;11144;43.030;25.108;2023-06-19T01:35:33;26.90;;;11.40;;
21959;SDS011;11144;43.030;25.108;2023-06-19T01:37:08;20.42;;;10.48;;
21959;SDS011;11144;43.030;25.108;2023-06-19T01:38:43;21.88;;;11.40;;
21959;SDS011;11144;43.030;25.108;2023-06-19T01:40:18;21.02;;;11.38;;
21959;SDS011;11144;43.030;25.108;2023-06-19T01:41:53;31.63;;;11.88;;
21959;SDS011;11144;43.030;25.108;2023-06-19T01:43:28;18.70;;;10.68;;
21959;SDS011;11144;43.030;25.108;2023-06-19T01:45:04;20.15;;;10.88;;
21959;SDS011;11144;43.030;25.108;2023-06-19T01:46:40;25.13;;;11.80;;
21959;SDS011;11144;43.030;25.108;2023-06-19T01:48:13;24.20;;;11.40;;
21959;SDS011;11144;43.030;25.108;2023-06-19T01:49:46;26.83;;;11.02;;
21959;SDS011;11144;43.030;25.108;2023-06-19T01:51:19;30.60;;;11.10;;
21959;SDS011;11144;43.030;25.108;2023-06-19T01:52:52;33.83;;;11.50;;
21959;SDS011;11144;43.030;25.108;2023-06-19T01:54:26;24.48;;;11.82;;
21959;SDS011;11144;43.030;25.108;2023-06-19T01:55:59;27.33;;;10.95;;
21959;SDS011;11144;43.030;25.108;2023-06-19T01:57:34;30.67;;;11.18;;
21959;SDS011;11144;43.030;25.108;2023-06-19T01:59:07;27.42;;;10.50;;
21959;SDS011;11144;43.030;25.108;2023-06-19T02:00:41;15.75;;;10.10;;
21959;SDS011;11144;43.030;25.108;2023-06-19T02:02:13;28.98;;;11.32;;
21959;SDS011;11144;43.030;25.108;2023-06-19T02:03:46;27.00;;;10.70;;
21959;SDS011;11144;43.030;25.108;2023-06-19T02:05:19;24.58;;;10.30;;
21959;SDS011;11144;43.030;25.108;2023-06-19T02:06:52;23.05;;;11.25;;
21959;SDS011;11144;43.030;25.108;2023-06-19T02:08:25;22.58;;;10.88;;
21959;SDS011;11144;43.030;25.108;2023-06-19T02:10:00;30.40;;;10.27;;
21959;SDS011;11144;43.030;25.108;2023-06-19T02:11:34;33.72;;;10.90;;
21959;SDS011;11144;43.030;25.108;2023-06-19T02:13:07;22.50;;;10.25;;
21959;SDS011;11144;43.030;25.108;2023-06-19T02:14:41;24.70;;;10.02;;
21959;SDS011;11144;43.030;25.108;2023-06-19T02:16:16;23.92;;;10.38;;
21959;SDS011;11144;43.030;25.108;2023-06-19T02:17:49;23.30;;;10.60;;
21959;SDS011;11144;43.030;25.108;2023-06-19T02:19:26;23.15;;;9.35;;
21959;SDS011;11144;43.030;25.108;2023-06-19T02:21:00;25.50;;;11.88;;
21959;SDS011;11144;43.030;25.108;2023-06-19T02:22:32;20.92;;;10.02;;
21959;SDS011;11144;43.030;25.108;2023-06-19T02:24:06;17.95;;;10.13;;
21959;SDS011;11144;43.030;25.108;2023-06-19T02:25:41;21.35;;;10.35;;
21959;SDS011;11144;43.030;25.108;2023-06-19T02:27:13;23.10;;;10.50;;
21959;SDS011;11144;43.030;25.108;2023-06-19T02:28:48;21.98;;;11.25;;
21959;SDS011;11144;43.030;25.108;2023-06-19T02:30:22;23.85;;;10.50;;
21959;SDS011;11144;43.030;25.108;2023-06-19T02:31:56;26.45;;;11.25;;
21959;SDS011;11144;43.030;25.108;2023-06-19T02:33:31;21.05;;;11.13;;
21959;SDS011;11144;43.030;25.108;2023-06-19T02:35:05;23.90;;;10.55;;
21959;SDS011;11144;43.030;25.108;2023-06-19T02:36:41;29.38;;;10.93;;
21959;SDS011;11144;43.030;25.108;2023-06-19T02:38:14;25.77;;;10.00;;
21959;SDS011;11144;43.030;25.108;2023-06-19T02:39:46;35.50;;;10.35;;
21959;SDS011;11144;43.030;25.108;2023-06-19T02:41:21;31.77;;;10.70;;
21959;SDS011;11144;43.030;25.108;2023-06-19T02:42:54;29.80;;;10.57;;
21959;SDS011;11144;43.030;25.108;2023-06-19T02:44:28;20.88;;;11.70;;
21959;SDS011;11144;43.030;25.108;2023-06-19T02:46:01;33.13;;;10.68;;
21959;SDS011;11144;43.030;25.108;2023-06-19T02:47:36;31.80;;;10.32;;
21959;SDS011;11144;43.030;25.108;2023-06-19T02:49:09;25.52;;;11.48;;
21959;SDS011;11144;43.030;25.108;2023-06-19T02:50:41;31.85;;;11.75;;
21959;SDS011;11144;43.030;25.108;2023-06-19T02:52:15;31.00;;;11.23;;
21959;SDS011;11144;43.030;25.108;2023-06-19T02:53:47;26.38;;;11.57;;
21959;SDS011;11144;43.030;25.108;2023-06-19T02:55:20;31.15;;;11.07;;
21959;SDS011;11144;43.030;25.108;2023-06-19T02:56:54;29.60;;;10.43;;
21959;SDS011;11144;43.030;25.108;2023-06-19T02:58:27;26.25;;;10.80;;
21959;SDS011;11144;43.030;25.108;2023-06-19T03:00:01;22.92;;;9.93;;
21959;SDS011;11144;43.030;25.108;2023-06-19T03:01:35;18.20;;;10.00;;
21959;SDS011;11144;43.030;25.108;2023-06-19T03:03:08;16.67;;;10.38;;
21959;SDS011;11144;43.030;25.108;2023-06-19T03:04:42;20.50;;;10.43;;
21959;SDS011;11144;43.030;25.108;2023-06-19T03:06:16;22.08;;;11.48;;
21959;SDS011;11144;43.030;25.108;2023-06-19T03:07:50;19.98;;;10.15;;
21959;SDS011;11144;43.030;25.108;2023-06-19T03:09:24;23.35;;;10.15;;
21959;SDS011;11144;43.030;25.108;2023-06-19T03:10:57;20.38;;;10.63;;
21959;SDS011;11144;43.030;25.108;2023-06-19T03:12:31;17.02;;;9.73;;
21959;SDS011;11144;43.030;25.108;2023-06-19T03:14:04;18.48;;;10.25;;
21959;SDS011;11144;43.030;25.108;2023-06-19T03:15:39;21.10;;;9.90;;
21959;SDS011;11144;43.030;25.108;2023-06-19T03:17:13;19.52;;;9.60;;
21959;SDS011;11144;43.030;25.108;2023-06-19T03:18:46;16.58;;;8.43;;
21959;SDS011;11144;43.030;25.108;2023-06-19T03:20:25;23.20;;;9.60;;
21959;SDS011;11144;43.030;25.108;2023-06-19T03:22:01;28.50;;;10.07;;
21959;SDS011;11144;43.030;25.108;2023-06-19T03:23:35;20.70;;;10.23;;
21959;SDS011;11144;43.030;25.108;2023-06-19T03:25:07;13.80;;;8.45;;
21959;SDS011;11144;43.030;25.108;2023-06-19T03:26:41;16.08;;;9.52;;
21959;SDS011;11144;43.030;25.108;2023-06-19T03:28:16;14.30;;;8.68;;
21959;SDS011;11144;43.030;25.108;2023-06-19T03:29:50;13.50;;;8.80;;
21959;SDS011;11144;43.030;25.108;2023-06-19T03:31:29;10.63;;;8.18;;
21959;SDS011;11144;43.030;25.108;2023-06-19T03:33:03;13.52;;;8.70;;
21959;SDS011;11144;43.030;25.108;2023-06-19T03:34:44;16.48;;;8.63;;
21959;SDS011;11144;43.030;25.108;2023-06-19T03:36:17;15.88;;;8.63;;
21959;SDS011;11144;43.030;25.108;2023-06-19T03:37:53;16.40;;;9.07;;
21959;SDS011;11144;43.030;25.108;2023-06-19T03:39:25;15.73;;;8.45;;
21959;SDS011;11144;43.030;25.108;2023-06-19T03:41:05;16.38;;;9.70;;
21959;SDS011;11144;43.030;25.108;2023-06-19T03:42:40;13.35;;;8.73;;
21959;SDS011;11144;43.030;25.108;2023-06-19T03:44:14;14.88;;;8.25;;
21959;SDS011;11144;43.030;25.108;2023-06-19T03:45:48;16.02;;;8.30;;
21959;SDS011;11144;43.030;25.108;2023-06-19T03:47:21;12.68;;;8.00;;
21959;SDS011;11144;43.030;25.108;2023-06-19T03:48:54;17.00;;;8.18;;
21959;SDS011;11144;43.030;25.108;2023-06-19T03:50:27;13.73;;;8.88;;
21959;SDS011;11144;43.030;25.108;2023-06-19T03:52:01;23.08;;;9.00;;
21959;SDS011;11144;43.030;25.108;2023-06-19T03:53:35;13.23;;;9.32;;
21959;SDS011;11144;43.030;25.108;2023-06-19T03:55:07;17.75;;;8.80;;
21959;SDS011;11144;43.030;25.108;2023-06-19T03:56:41;19.58;;;9.18;;
21959;SDS011;11144;43.030;25.108;2023-06-19T03:58:14;10.52;;;8.68;;
21959;SDS011;11144;43.030;25.108;2023-06-19T03:59:48;11.50;;;8.27;;
21959;SDS011;11144;43.030;25.108;2023-06-19T04:01:26;14.77;;;8.32;;
21959;SDS011;11144;43.030;25.108;2023-06-19T04:02:59;12.43;;;8.10;;
21959;SDS011;11144;43.030;25.108;2023-06-19T04:04:33;12.90;;;8.15;;
21959;SDS011;11144;43.030;25.108;2023-06-19T04:06:06;15.45;;;8.13;;
21959;SDS011;11144;43.030;25.108;2023-06-19T04:07:43;14.80;;;7.80;;
21959;SDS011;11144;43.030;25.108;2023-06-19T04:09:18;12.35;;;8.35;;
21959;SDS011;11144;43.030;25.108;2023-06-19T04:10:52;12.32;;;8.93;;
21959;SDS011;11144;43.030;25.108;2023-06-19T04:12:25;12.25;;;8.48;;
21959;SDS011;11144;43.030;25.108;2023-06-19T04:13:59;13.93;;;8.52;;
21959;SDS011;11144;43.030;25.108;2023-06-19T04:15:35;16.67;;;7.80;;
21959;SDS011;11144;43.030;25.108;2023-06-19T04:17:09;15.45;;;7.03;;
21959;SDS011;11144;43.030;25.108;2023-06-19T04:18:42;12.68;;;7.75;;
21959;SDS011;11144;43.030;25.108;2023-06-19T04:20:16;13.38;;;6.85;;
21959;SDS011;11144;43.030;25.108;2023-06-19T04:21:51;13.18;;;7.45;;
21959;SDS011;11144;43.030;25.108;2023-06-19T04:23:26;12.63;;;7.43;;
21959;SDS011;11144;43.030;25.108;2023-06-19T04:24:59;16.60;;;7.68;;
21959;SDS011;11144;43.030;25.108;2023-06-19T04:26:33;9.70;;;6.47;;
21959;SDS011;11144;43.030;25.108;2023-06-19T04:28:06;11.30;;;7.45;;
21959;SDS011;11144;43.030;25.108;2023-06-19T04:29:39;12.80;;;7.38;;
21959;SDS011;11144;43.030;25.108;2023-06-19T04:31:14;12.60;;;6.35;;
21959;SDS011;11144;43.030;25.108;2023-06-19T04:32:50;9.30;;;5.95;;
21959;SDS011;11144;43.030;25.108;2023-06-19T04:34:25;11.70;;;5.80;;
21959;SDS011;11144;43.030;25.108;2023-06-19T04:35:58;14.18;;;6.03;;
21959;SDS011;11144;43.030;25.108;2023-06-19T04:37:32;7.97;;;6.05;;
21959;SDS011;11144;43.030;25.108;2023-06-19T04:39:04;11.77;;;6.40;;
21959;SDS011;11144;43.030;25.108;2023-06-19T04:40:37;12.00;;;6.68;;
21959;SDS011;11144;43.030;25.108;2023-06-19T04:42:10;12.95;;;6.40;;
21959;SDS011;11144;43.030;25.108;2023-06-19T04:43:44;10.45;;;6.70;;
21959;SDS011;11144;43.030;25.108;2023-06-19T04:45:18;8.05;;;6.43;;
21959;SDS011;11144;43.030;25.108;2023-06-19T04:46:53;10.18;;;6.28;;
21959;SDS011;11144;43.030;25.108;2023-06-19T04:48:32;13.52;;;6.88;;
21959;SDS011;11144;43.030;25.108;2023-06-19T04:50:08;11.98;;;5.68;;
21959;SDS011;11144;43.030;25.108;2023-06-19T04:51:41;11.50;;;6.32;;
21959;SDS011;11144;43.030;25.108;2023-06-19T04:53:14;9.60;;;5.60;;
21959;SDS011;11144;43.030;25.108;2023-06-19T04:54:48;8.25;;;5.80;;
21959;SDS011;11144;43.030;25.108;2023-06-19T04:56:21;6.63;;;5.28;;
21959;SDS011;11144;43.030;25.108;2023-06-19T04:57:54;9.13;;;5.78;;
21959;SDS011;11144;43.030;25.108;2023-06-19T04:59:27;8.50;;;5.68;;
21959;SDS011;11144;43.030;25.108;2023-06-19T05:01:01;10.52;;;5.28;;
21959;SDS011;11144;43.030;25.108;2023-06-19T05:02:36;9.50;;;5.50;;
21959;SDS011;11144;43.030;25.108;2023-06-19T05:04:10;8.70;;;5.88;;
21959;SDS011;11144;43.030;25.108;2023-06-19T05:05:44;9.88;;;5.07;;
21959;SDS011;11144;43.030;25.108;2023-06-19T05:07:17;6.38;;;5.10;;
21959;SDS011;11144;43.030;25.108;2023-06-19T05:08:51;7.32;;;4.65;;
21959;SDS011;11144;43.030;25.108;2023-06-19T05:10:25;8.88;;;5.45;;
21959;SDS011;11144;43.030;25.108;2023-06-19T05:11:58;7.75;;;5.22;;
21959;SDS011;11144;43.030;25.108;2023-06-19T05:13:30;9.07;;;5.72;;
21959;SDS011;11144;43.030;25.108;2023-06-19T05:15:04;6.18;;;4.88;;
21959;SDS011;11144;43.030;25.108;2023-06-19T05:16:37;6.25;;;4.85;;
21959;SDS011;11144;43.030;25.108;2023-06-19T05:18:12;6.70;;;4.60;;
21959;SDS011;11144;43.030;25.108;2023-06-19T05:19:45;7.93;;;5.60;;
21959;SDS011;11144;43.030;25.108;2023-06-19T05:21:18;7.85;;;4.97;;
21959;SDS011;11144;43.030;25.108;2023-06-19T05:22:52;6.10;;;4.40;;
21959;SDS011;11144;43.030;25.108;2023-06-19T05:24:25;6.93;;;4.75;;
21959;SDS011;11144;43.030;25.108;2023-06-19T05:25:58;7.25;;;5.20;;
21959;SDS011;11144;43.030;25.108;2023-06-19T05:27:32;7.57;;;5.10;;
21959;SDS011;11144;43.030;25.108;2023-06-19T05:29:05;16.65;;;5.55;;
21959;SDS011;11144;43.030;25.108;2023-06-19T05:30:40;10.23;;;4.95;;
21959;SDS011;11144;43.030;25.108;2023-06-19T05:32:13;5.28;;;4.78;;
21959;SDS011;11144;43.030;25.108;2023-06-19T05:33:47;12.20;;;8.25;;
21959;SDS011;11144;43.030;25.108;2023-06-19T05:35:20;9.18;;;4.80;;
21959;SDS011;11144;43.030;25.108;2023-06-19T05:36:53;5.97;;;5.28;;
21959;SDS011;11144;43.030;25.108;2023-06-19T05:38:27;5.80;;;5.20;;
21959;SDS011;11144;43.030;25.108;2023-06-19T05:40:02;10.73;;;7.72;;
21959;SDS011;11144;43.030;25.108;2023-06-19T05:41:37;6.68;;;5.25;;
21959;SDS011;11144;43.030;25.108;2023-06-19T05:43:10;9.15;;;7.32;;
21959;SDS011;11144;43.030;25.108;2023-06-19T05:44:43;8.63;;;5.20;;
21959;SDS011;11144;43.030;25.108;2023-06-19T05:46:17;6.70;;;5.05;;
21959;SDS011;11144;43.030;25.108;2023-06-19T05:47:51;7.72;;;5.68;;
21959;SDS011;11144;43.030;25.108;2023-06-19T05:49:26;7.30;;;5.72;;
21959;SDS011;11144;43.030;25.108;2023-06-19T05:51:00;6.68;;;5.15;;
21959;SDS011;11144;43.030;25.108;2023-06-19T05:52:34;7.30;;;5.95;;
21959;SDS011;11144;43.030;25.108;2023-06-19T05:54:07;9.15;;;5.53;;
21959;SDS011;11144;43.030;25.108;2023-06-19T05:55:41;10.15;;;5.18;;
21959;SDS011;11144;43.030;25.108;2023-06-19T05:57:14;9.15;;;5.25;;
21959;SDS011;11144;43.030;25.108;2023-06-19T05:58:52;10.02;;;4.75;;
21959;SDS011;11144;43.030;25.108;2023-06-19T06:00:26;9.07;;;5.28;;
21959;SDS011;11144;43.030;25.108;2023-06-19T06:01:59;7.25;;;5.40;;
21959;SDS011;11144;43.030;25.108;2023-06-19T06:03:34;9.13;;;4.95;;
21959;SDS011;11144;43.030;25.108;2023-06-19T06:05:09;9.80;;;5.28;;
21959;SDS011;11144;43.030;25.108;2023-06-19T06:06:43;11.63;;;5.93;;
21959;SDS011;11144;43.030;25.108;2023-06-19T06:08:17;8.70;;;5.85;;
21959;SDS011;11144;43.030;25.108;2023-06-19T06:09:50;17.35;;;10.55;;
21959;SDS011;11144;43.030;25.108;2023-06-19T06:11:23;8.80;;;5.28;;
21959;SDS011;11144;43.030;25.108;2023-06-19T06:12:57;11.73;;;5.25;;
21959;SDS011;11144;43.030;25.108;2023-06-19T06:14:35;6.38;;;4.85;;
21959;SDS011;11144;43.030;25.108;2023-06-19T06:16:08;8.02;;;4.82;;
21959;SDS011;11144;43.030;25.108;2023-06-19T06:17:42;11.32;;;5.07;;
21959;SDS011;11144;43.030;25.108;2023-06-19T06:19:16;7.75;;;5.22;;
21959;SDS011;11144;43.030;25.108;2023-06-19T06:20:51;6.40;;;5.05;;
21959;SDS011;11144;43.030;25.108;2023-06-19T06:22:24;13.35;;;5.68;;
21959;SDS011;11144;43.030;25.108;2023-06-19T06:23:58;8.55;;;5.50;;
21959;SDS011;11144;43.030;25.108;2023-06-19T06:25:32;7.53;;;4.72;;
21959;SDS011;11144;43.030;25.108;2023-06-19T06:27:06;8.02;;;4.63;;
21959;SDS011;11144;43.030;25.108;2023-06-19T06:28:39;4.55;;;3.47;;
21959;SDS011;11144;43.030;25.108;2023-06-19T06:30:13;9.27;;;4.95;;
21959;SDS011;11144;43.030;25.108;2023-06-19T06:31:51;4.35;;;3.63;;
21959;SDS011;11144;43.030;25.108;2023-06-19T06:33:24;7.55;;;4.20;;
21959;SDS011;11144;43.030;25.108;2023-06-19T06:34:58;6.10;;;4.15;;
21959;SDS011;11144;43.030;25.108;2023-06-19T06:36:33;12.00;;;5.10;;
21959;SDS011;11144;43.030;25.108;2023-06-19T06:38:14;6.78;;;3.85;;
21959;SDS011;11144;43.030;25.108;2023-06-19T06:39:48;5.47;;;4.55;;
21959;SDS011;11144;43.030;25.108;2023-06-19T06:41:22;3.70;;;3.15;;
21959;SDS011;11144;43.030;25.108;2023-06-19T06:42:55;6.93;;;4.25;;
21959;SDS011;11144;43.030;25.108;2023-06-19T06:44:30;4.15;;;3.20;;
21959;SDS011;11144;43.030;25.108;2023-06-19T06:46:03;10.07;;;7.05;;
21959;SDS011;11144;43.030;25.108;2023-06-19T06:47:37;6.18;;;3.65;;
21959;SDS011;11144;43.030;25.108;2023-06-19T06:49:13;4.68;;;3.10;;
21959;SDS011;11144;43.030;25.108;2023-06-19T06:50:48;8.32;;;3.85;;
21959;SDS011;11144;43.030;25.108;2023-06-19T06:52:23;5.30;;;3.60;;
21959;SDS011;11144;43.030;25.108;2023-06-19T06:53:56;3.95;;;3.55;;
21959;SDS011;11144;43.030;25.108;2023-06-19T06:55:30;6.10;;;3.42;;
21959;SDS011;11144;43.030;25.108;2023-06-19T06:57:03;4.68;;;3.47;;
21959;SDS011;11144;43.030;25.108;2023-06-19T06:58:37;6.95;;;4.30;;
21959;SDS011;11144;43.030;25.108;2023-06-19T07:00:11;4.47;;;3.35;;
21959;SDS011;11144;43.030;25.108;2023-06-19T07:01:45;6.93;;;3.70;;
21959;SDS011;11144;43.030;25.108;2023-06-19T07:03:19;4.05;;;3.65;;
21959;SDS011;11144;43.030;25.108;2023-06-19T07:04:56;6.28;;;3.55;;
21959;SDS011;11144;43.030;25.108;2023-06-19T07:06:30;3.78;;;3.03;;
21959;SDS011;11144;43.030;25.108;2023-06-19T07:08:14;6.55;;;3.78;;
21959;SDS011;11144;43.030;25.108;2023-06-19T07:09:59;5.20;;;2.92;;
21959;SDS011;11144;43.030;25.108;2023-06-19T07:11:34;5.00;;;3.25;;
21959;SDS011;11144;43.030;25.108;2023-06-19T07:13:11;6.05;;;3.10;;
21959;SDS011;11144;43.030;25.108;2023-06-19T07:14:47;5.50;;;3.95;;
21959;SDS011;11144;43.030;25.108;2023-06-19T07:16:28;5.22;;;3.38;;
21959;SDS011;11144;43.030;25.108;2023-06-19T07:18:05;9.20;;;3.50;;
21959;SDS011;11144;43.030;25.108;2023-06-19T07:19:38;5.28;;;3.53;;
21959;SDS011;11144;43.030;25.108;2023-06-19T07:21:21;7.40;;;3.70;;
21959;SDS011;11144;43.030;25.108;2023-06-19T07:22:55;4.95;;;3.13;;
21959;SDS011;11144;43.030;25.108;2023-06-19T07:24:30;7.75;;;4.60;;
21959;SDS011;11144;43.030;25.108;2023-06-19T07:26:04;6.32;;;3.95;;
21959;SDS011;11144;43.030;25.108;2023-06-19T07:27:37;7.45;;;3.67;;
21959;SDS011;11144;43.030;25.108;2023-06-19T07:29:11;3.85;;;3.35;;
21959;SDS011;11144;43.030;25.108;2023-06-19T07:30:44;3.95;;;3.53;;
21959;SDS011;11144;43.030;25.108;2023-06-19T07:32:19;7.53;;;3.85;;
21959;SDS011;11144;43.030;25.108;2023-06-19T07:33:53;11.68;;;4.55;;
21959;SDS011;11144;43.030;25.108;2023-06-19T07:35:26;4.22;;;3.53;;
21959;SDS011;11144;43.030;25.108;2023-06-19T07:36:59;7.90;;;4.38;;
21959;SDS011;11144;43.030;25.108;2023-06-19T07:38:32;6.03;;;3.83;;
21959;SDS011;11144;43.030;25.108;2023-06-19T07:40:08;5.65;;;3.70;;
21959;SDS011;11144;43.030;25.108;2023-06-19T07:41:42;4.97;;;3.80;;
21959;SDS011;11144;43.030;25.108;2023-06-19T07:43:17;3.67;;;3.38;;
21959;SDS011;11144;43.030;25.108;2023-06-19T07:44:50;6.65;;;4.07;;
21959;SDS011;11144;43.030;25.108;2023-06-19T07:46:23;5.43;;;4.00;;
21959;SDS011;11144;43.030;25.108;2023-06-19T07:47:57;6.32;;;4.50;;
21959;SDS011;11144;43.030;25.108;2023-06-19T07:49:30;5.70;;;4.05;;
21959;SDS011;11144;43.030;25.108;2023-06-19T07:51:04;4.50;;;4.00;;
21959;SDS011;11144;43.030;25.108;2023-06-19T07:52:37;5.75;;;4.45;;
21959;SDS011;11144;43.030;25.108;2023-06-19T07:54:10;4.40;;;4.00;;
21959;SDS011;11144;43.030;25.108;2023-06-19T07:55:45;5.22;;;3.85;;
21959;SDS011;11144;43.030;25.108;2023-06-19T07:57:19;4.60;;;4.10;;
21959;SDS011;11144;43.030;25.108;2023-06-19T07:58:52;4.40;;;4.00;;
21959;SDS011;11144;43.030;25.108;2023-06-19T08:00:26;6.10;;;4.30;;
21959;SDS011;11144;43.030;25.108;2023-06-19T08:01:59;4.70;;;4.10;;
21959;SDS011;11144;43.030;25.108;2023-06-19T08:03:33;7.70;;;4.32;;
21959;SDS011;11144;43.030;25.108;2023-06-19T08:05:08;6.50;;;4.30;;
21959;SDS011;11144;43.030;25.108;2023-06-19T08:06:42;8.65;;;4.45;;
21959;SDS011;11144;43.030;25.108;2023-06-19T08:08:16;7.15;;;4.47;;
21959;SDS011;11144;43.030;25.108;2023-06-19T08:09:49;5.03;;;4.53;;
21959;SDS011;11144;43.030;25.108;2023-06-19T08:11:36;9.27;;;5.60;;
21959;SDS011;11144;43.030;25.108;2023-06-19T08:13:10;6.47;;;4.25;;
21959;SDS011;11144;43.030;25.108;2023-06-19T08:14:44;8.73;;;5.43;;
21959;SDS011;11144;43.030;25.108;2023-06-19T08:16:17;5.07;;;4.57;;
21959;SDS011;11144;43.030;25.108;2023-06-19T08:17:51;8.80;;;4.70;;
21959;SDS011;11144;43.030;25.108;2023-06-19T08:19:24;4.93;;;4.53;;
21959;SDS011;11144;43.030;25.108;2023-06-19T08:20:58;6.05;;;5.43;;
21959;SDS011;11144;43.030;25.108;2023-06-19T08:22:32;8.27;;;5.22;;
21959;SDS011;11144;43.030;25.108;2023-06-19T08:24:06;6.65;;;5.60;;
21959;SDS011;11144;43.030;25.108;2023-06-19T08:25:43;5.32;;;4.50;;
21959;SDS011;11144;43.030;25.108;2023-06-19T08:27:17;6.85;;;5.22;;
21959;SDS011;11144;43.030;25.108;2023-06-19T08:28:51;5.45;;;4.93;;
21959;SDS011;11144;43.030;25.108;2023-06-19T08:30:24;8.20;;;5.10;;
21959;SDS011;11144;43.030;25.108;2023-06-19T08:31:59;6.25;;;5.25;;
21959;SDS011;11144;43.030;25.108;2023-06-19T08:33:33;7.43;;;5.13;;
21959;SDS011;11144;43.030;25.108;2023-06-19T08:35:08;7.63;;;5.50;;
21959;SDS011;11144;43.030;25.108;2023-06-19T08:36:41;5.65;;;5.15;;
21959;SDS011;11144;43.030;25.108;2023-06-19T08:38:15;7.93;;;5.53;;
21959;SDS011;11144;43.030;25.108;2023-06-19T08:39:49;10.05;;;5.75;;
21959;SDS011;11144;43.030;25.108;2023-06-19T08:41:23;7.18;;;5.43;;
21959;SDS011;11144;43.030;25.108;2023-06-19T08:42:57;5.85;;;4.93;;
21959;SDS011;11144;43.030;25.108;2023-06-19T08:44:32;5.45;;;4.78;;
21959;SDS011;11144;43.030;25.108;2023-06-19T08:46:10;21.75;;;6.80;;
21959;SDS011;11144;43.030;25.108;2023-06-19T08:47:44;5.40;;;4.82;;
21959;SDS011;11144;43.030;25.108;2023-06-19T08:49:18;5.75;;;5.00;;
21959;SDS011;11144;43.030;25.108;2023-06-19T08:50:52;8.18;;;5.03;;
21959;SDS011;11144;43.030;25.108;2023-06-19T08:52:26;4.97;;;4.32;;
21959;SDS011;11144;43.030;25.108;2023-06-19T08:54:01;5.85;;;5.35;;
21959;SDS011;11144;43.030;25.108;2023-06-19T08:55:36;6.22;;;5.63;;
21959;SDS011;11144;43.030;25.108;2023-06-19T08:57:09;7.55;;;5.15;;
21959;SDS011;11144;43.030;25.108;2023-06-19T08:58:45;6.38;;;5.63;;
21959;SDS011;11144;43.030;25.108;2023-06-19T09:00:22;5.75;;;5.10;;
21959;SDS011;11144;43.030;25.108;2023-06-19T09:01:59;15.77;;;12.45;;
21959;SDS011;11144;43.030;25.108;2023-06-19T09:03:35;15.45;;;7.65;;
21959;SDS011;11144;43.030;25.108;2023-06-19T09:05:12;15.40;;;12.25;;
21959;SDS011;11144;43.030;25.108;2023-06-19T09:06:50;6.40;;;4.97;;
21959;SDS011;11144;43.030;25.108;2023-06-19T09:08:57;6.60;;;4.25;;
21959;SDS011;11144;43.030;25.108;2023-06-19T09:10:31;5.80;;;4.90;;
21959;SDS011;11144;43.030;25.108;2023-06-19T09:12:06;5.47;;;4.90;;
21959;SDS011;11144;43.030;25.108;2023-06-19T09:13:44;7.97;;;4.47;;